Latest Coastal Weather Observations for Cape Naturaliste

IDW60701

Issued at 3:23 am WST Friday 22 September 2017 (issued every 10 minutes, with the page automatically refreshed every 10 minutes)

About coastal observations | Map of coastal stations | Coastal observations for WA | Marine services | Other Formats
Station Details ID: 009519 Name: CAPE NATURALISTE Lat: -33.54 Lon: 115.02 Height: 109.0 m
Data from the previous 72 hours. | See also: Recent months at Cape Naturaliste
Date/Time
WST
Temp
°C
Wind Pressure Rain since
9am
mm
Weather Cloud Vis
km
Sea
Height
m
Swell
Dir  Spd
kts
Gust
kts
hPa Trend Height
m
Period
s
Dir
22/03:02am 13.6 WNW 23 33 999.4 - 4.8 - - - - - - -
22/03:00am 13.5 WNW 22 31 999.5 - 4.8 Rain - - - - - -
22/02:30am 13.2 W 22 34 999.9 - 4.6 - - - - - - -
22/02:00am 14.7 WNW 25 35 1000.0 - 4.6 - - - - - - -
22/01:42am 15.0 WNW 23 33 1000.3 - 4.6 - - - - - - -
22/01:30am 14.8 WNW 25 33 1000.4 - 4.6 - - - - - - -
22/01:00am 14.9 WNW 25 31 1000.9 - 4.6 - - - - - - -
22/12:30am 14.6 WNW 27 35 1001.2 - 4.6 - - - - - - -
22/12:00am 14.0 WNW 26 33 1001.6 - 4.6 Recent precip. - - - - - -
 
Date/Time
WST
Temp
°C
Wind Pressure Rain since
9am
mm
Weather Cloud Vis
km
Sea
Height
m
Swell
Dir  Spd
kts
Gust
kts
hPa Trend Height
m
Period
s
Dir
21/11:30pm 13.1 WNW 28 41 1001.7 - 4.6 - - - - - - -
21/11:01pm 14.1 WNW 23 33 1002.1 - 4.4 - - - - - - -
21/11:00pm 14.0 WNW 24 33 1002.2 - 4.4 - - - - - - -
21/10:30pm 13.5 WNW 25 36 1002.5 - 4.4 - - - - - - -
21/10:10pm 13.7 W 22 32 1002.6 - 4.4 - - - - - - -
21/10:00pm 13.6 W 25 34 1002.6 - 4.2 - - - - - - -
21/09:40pm 14.0 WNW 18 29 1002.8 - 4.0 - - - - - - -
21/09:30pm 13.6 WNW 20 25 1003.1 - 4.0 - - - - - - -
21/09:00pm 14.0 W 26 38 1003.1 - 3.4 - - - - - - -
21/08:58pm 14.3 W 25 38 1003.1 - 3.4 - - - - - - -
21/08:49pm 15.2 WNW 26 35 1003.2 - 3.4 - - - - - - -
21/08:30pm 15.3 WNW 28 35 1003.2 - 3.4 - - - - - - -
21/08:00pm 14.6 WNW 22 32 1003.2 - 3.4 - - - - - - -
21/07:58pm 14.6 WNW 21 32 1003.2 - 3.4 - - - - - - -
21/07:30pm 15.3 WNW 25 34 1003.1 - 3.4 - - - - - - -
21/07:14pm 15.2 WNW 24 35 1003.0 - 3.4 - - - - - - -
21/07:00pm 15.1 WNW 24 32 1002.7 - 3.4 - - - - - - -
21/06:33pm 15.2 WNW 23 33 1002.5 - 3.4 - - - - - - -
21/06:30pm 15.2 WNW 24 33 1002.5 - 3.4 - - - - - - -
21/06:24pm 15.3 WNW 23 33 1002.4 - 3.4 - - - - - - -
21/06:00pm 15.6 WNW 27 34 1002.1 - 3.4 - - - - - - -
21/05:32pm 16.1 WNW 29 39 1002.0 - 3.4 - - - - - - -
21/05:30pm 16.1 WNW 30 39 1001.9 - 3.4 - - - - - - -
21/05:00pm 16.3 WNW 26 36 1001.8 - 3.4 - - - - - - -
21/04:30pm 16.5 WNW 31 41 1001.7 - 3.4 - - - - - - -
21/04:07pm 16.9 WNW 27 38 1001.7 - 3.4 - - - - - - -
21/04:00pm 16.9 WNW 29 37 1001.7 - 3.4 - - - - - - -
21/03:30pm 17.4 W 29 35 1001.5 - 3.4 - - - - - - -
21/03:00pm 17.8 W 31 41 1001.2 - 3.4 - - - - - - -
21/02:30pm 18.0 W 31 41 1001.1 - 3.4 - - - - - - -
21/02:08pm 18.2 WNW 30 40 1001.0 - 3.4 - - - - - - -
21/02:00pm 18.1 WNW 29 37 1001.0 - 3.4 - - - - - - -
21/01:30pm 17.8 W 32 43 1000.9 - 3.4 - - - - - - -
21/01:00pm 18.2 W 32 42 1000.6 - 3.4 - - - - - - -
21/12:30pm 18.1 W 33 45 1000.5 - 3.4 - - - - - - -
21/12:00pm 17.7 WNW 36 46 1000.1 - 3.4 - - - - - - -
21/11:30am 16.8 W 35 46 1000.1 - 3.4 - - - - - - -
21/11:03am 16.6 W 32 42 999.9 - 3.4 - - - - - - -
21/11:00am 16.6 W 31 40 1000.0 - 3.4 - - - - - - -
21/10:31am 15.7 WNW 29 39 999.8 - 3.4 - - - - - - -
21/10:30am 15.8 WNW 29 36 999.8 - 3.2 - - - - - - -
21/10:00am 16.8 NW 27 40 999.3 - 1.6 - - - - - - -
21/09:30am 16.6 NW 26 37 999.8 - 0.8 - - - - - - -
21/09:00am 17.0 NW 29 39 999.8 - 5.8 Recent precip. - - - - - -
21/08:30am 16.8 NW 30 41 1000.1 - 5.2 - - - - - - -
21/08:00am 17.7 NW 32 43 1000.1 - 4.6 - - - - - - -
21/07:30am 17.5 NW 30 41 1000.7 - 4.6 - - - - - - -
21/07:14am 17.6 NW 31 42 1000.7 - 4.6 - - - - - - -
21/07:00am 17.5 NNW 31 39 1000.9 - 4.6 - - - - - - -
21/06:30am 17.4 NW 32 43 1001.3 - 4.6 - - - - - - -
21/06:00am 17.1 NNW 34 45 1001.3 - 4.6 - - - - - - -
21/05:35am 17.3 NW 27 37 1001.8 - 4.6 - - - - - - -
21/05:30am 17.1 NW 28 37 1001.8 - 4.6 - - - - - - -
21/05:05am 17.1 NW 28 38 1002.1 - 4.6 - - - - - - -
21/05:00am 17.2 NNW 29 38 1002.2 - 4.6 - - - - - - -
21/04:30am 16.9 NW 27 37 1002.6 - 4.6 - - - - - - -
21/04:00am 17.1 NW 25 35 1003.0 - 4.6 - - - - - - -
21/03:30am 17.0 NW 27 39 1003.4 - 4.6 - - - - - - -
21/03:04am 16.9 NW 25 35 1003.5 - 4.6 - - - - - - -
21/03:00am 17.1 NW 24 33 1003.6 - 4.6 Recent precip. - - - - - -
21/02:37am 17.0 NW 23 33 1004.0 - 4.6 - - - - - - -
21/02:30am 16.9 NW 24 33 1004.0 - 4.6 - - - - - - -
21/02:00am 17.0 NW 24 32 1004.5 - 4.2 - - - - - - -
21/01:52am 17.0 NNW 21 31 1004.8 - 4.2 - - - - - - -
21/01:30am 16.8 NW 18 25 1005.3 - 4.2 - - - - - - -
21/01:00am 16.4 NW 16 20 1005.9 - 4.2 - - - - - - -
21/12:30am 16.3 NW 15 19 1006.3 - 4.2 - - - - - - -
21/12:00am 16.3 NW 15 19 1007.0 - 4.2 - - - - - - -
 
Date/Time
WST
Temp
°C
Wind Pressure Rain since
9am
mm
Weather Cloud Vis
km
Sea
Height
m
Swell
Dir  Spd
kts
Gust
kts
hPa Trend Height
m
Period
s
Dir
20/11:30pm 16.1 NW 14 18 1007.4 - 4.2 - - - - - - -
20/11:00pm 15.9 WNW 16 21 1008.1 - 4.2 - - - - - - -
20/10:30pm 16.0 WNW 16 19 1008.5 - 4.2 - - - - - - -
20/10:00pm 15.9 NW 13 18 1008.6 - 4.2 - - - - - - -
20/09:30pm 16.3 WNW 15 19 1009.2 - 4.0 - - - - - - -
20/09:00pm 16.2 WNW 14 19 1009.3 - 4.0 - - - - - - -
20/08:30pm 16.0 WNW 15 18 1009.4 - 4.0 - - - - - - -
20/08:00pm 16.1 W 13 16 1009.3 - 4.0 - - - - - - -
20/07:30pm 15.7 W 16 21 1009.2 - 4.0 - - - - - - -
20/07:00pm 16.0 W 18 23 1009.2 - 4.0 - - - - - - -
20/06:36pm 16.8 WNW 20 28 1008.8 - 4.0 - - - - - - -
20/06:30pm 16.7 NW 20 28 1008.7 - 4.0 - - - - - - -
20/06:06pm 16.9 NW 22 32 1008.8 - 4.0 - - - - - - -
20/06:00pm 16.9 NW 23 32 1008.6 - 4.0 Rain - - - - - -
20/05:50pm 16.7 NNW 15 29 1008.6 - 3.8 - - - - - - -
20/05:30pm 16.3 NNW 17 25 1009.1 - 1.4 - - - - - - -
20/05:00pm 16.1 NNW 19 23 1009.2 - 0.8 - - - - - - -
20/04:30pm 15.4 N 18 23 1009.6 - 0.2 - - - - - - -
20/04:00pm 15.3 N 17 21 1009.8 - 0.0 - - - - - - -
20/03:30pm 15.5 N 15 21 1010.3 - 0.0 - - - - - - -
20/03:00pm 15.2 NNW 15 20 1011.0 - 0.0 - - - - - - -
20/02:30pm 16.3 NNW 16 24 1010.9 - 0.0 - - - - - - -
20/02:00pm 18.1 NNW 13 18 1011.2 - 0.0 - - - - - - -
20/01:30pm 18.8 NW 14 18 1011.3 - 0.0 - - - - - - -
20/01:00pm 18.6 NW 13 16 1011.6 - 0.0 - - - - - - -
20/12:30pm 18.5 NW 14 20 1012.0 - 0.0 - - - - - - -
20/12:00pm 17.8 NW 13 18 1012.3 - 0.0 - - - - - - -
20/11:30am 18.7 WNW 13 18 1012.4 - 0.0 - - - - - - -
20/11:00am 17.8 WNW 14 19 1012.7 - 0.0 - - - - - - -
20/10:30am 18.0 WNW 13 17 1013.0 - 0.0 - - - - - - -
20/10:00am 18.1 W 13 17 1012.9 - 0.0 - - - - - - -
20/09:30am 17.8 W 12 16 1013.0 - 0.0 - - - - - - -
20/09:00am 16.7 W 11 14 1012.9 - 0.2 - - - - - - -
20/08:30am 16.3 WSW 12 17 1012.8 - 0.2 - - - - - - -
20/08:00am 14.4 W 15 21 1012.7 - 0.2 - - - - - - -
20/07:49am 15.0 W 15 23 1012.6 - 0.2 - - - - - - -
20/07:30am 15.2 W 10 13 1012.3 - 0.2 - - - - - - -
20/07:00am 14.5 W 14 19 1012.5 - 0.2 - - - - - - -
20/06:30am 13.8 W 11 14 1012.4 - 0.2 - - - - - - -
20/06:00am 14.1 W 13 17 1012.1 - 0.2 Recent precip. - - - - - -
20/05:30am 14.5 W 10 13 1012.0 - 0.2 - - - - - - -
20/05:00am 14.6 WSW 13 17 1012.0 - 0.0 - - - - - - -
20/04:30am 14.6 W 14 18 1011.8 - 0.0 - - - - - - -
20/04:00am 14.4 WSW 13 17 1011.7 - 0.0 - - - - - - -
20/03:30am 13.9 W 10 13 1011.6 - 0.0 - - - - - - -
20/03:00am 14.3 W 11 14 1011.6 - 0.0 - - - - - - -
20/02:30am 13.3 WSW 8 11 1011.6 - 0.0 - - - - - - -
20/02:00am 13.8 W 11 14 1012.1 - 0.0 - - - - - - -
20/01:30am 13.9 SW 12 16 1012.5 - 0.0 - - - - - - -
20/01:00am 14.8 WSW 12 17 1012.6 - 0.0 - - - - - - -
20/12:30am 14.4 WSW 12 15 1012.7 - 0.0 - - - - - - -
20/12:00am 14.7 WSW 10 14 1013.0 - 0.0 - - - - - - -
 
Date/Time
WST
Temp
°C
Wind Pressure Rain since
9am
mm
Weather Cloud Vis
km
Sea
Height
m
Swell
Dir  Spd
kts
Gust
kts
hPa Trend Height
m
Period
s
Dir
19/11:30pm 15.0 SW 13 19 1013.0 - 0.0 - - - - - - -
19/11:00pm 14.8 W 13 17 1013.4 - 0.0 - - - - - - -
19/10:30pm 15.1 WSW 12 16 1013.8 - 0.0 - - - - - - -
19/10:00pm 15.4 WSW 14 19 1014.3 - 0.0 - - - - - - -
19/09:30pm 15.2 WSW 15 20 1014.3 - 0.0 - - - - - - -
19/09:00pm 15.3 WSW 13 19 1014.1 - 0.0 - - - - - - -
19/08:30pm 15.7 W 14 19 1013.9 - 0.0 - - - - - - -
19/08:00pm 15.6 W 14 17 1013.8 - 0.0 - - - - - - -
19/07:30pm 15.7 W 14 18 1013.7 - 0.0 - - - - - - -
19/07:00pm 15.6 W 14 18 1013.5 - 0.0 - - - - - - -
19/06:30pm 15.6 W 15 19 1013.3 - 0.0 - - - - - - -
19/06:00pm 15.5 W 15 20 1013.4 - 0.0 - - - - - - -
19/05:30pm 15.7 WSW 13 17 1013.3 - 0.0 - - - - - - -
19/05:00pm 15.9 WSW 11 14 1013.4 - 0.0 - - - - - - -
19/04:30pm 15.9 SW 12 17 1013.3 - 0.0 - - - - - - -
19/04:00pm 15.8 WSW 16 21 1013.3 - 0.0 - - - - - - -
19/03:30pm 16.9 WSW 15 19 1013.3 - 0.0 - - - - - - -
19/03:00pm 18.6 WSW 15 19 1013.2 - 0.0 - - - - - - -
19/02:30pm 19.6 WSW 15 20 1013.2 - 0.0 - - - - - - -
19/02:00pm 18.6 WSW 17 23 1013.3 - 0.0 - - - - - - -
19/01:30pm 19.0 W 19 25 1013.4 - 0.0 - - - - - - -
19/01:00pm 18.9 WNW 18 25 1013.5 - 0.0 - - - - - - -
19/12:30pm 21.1 WNW 19 24 1013.9 - 0.0 - - - - - - -
19/12:00pm 20.6 WNW 18 23 1014.0 - 0.0 - - - - - - -
19/11:30am 20.4 WNW 18 23 1014.3 - 0.0 - - - - - - -
19/11:00am 20.2 WNW 17 21 1014.7 - 0.0 - - - - - - -
19/10:30am 20.0 WNW 13 17 1014.9 - 0.0 - - - - - - -
19/10:00am 17.9 WNW 15 19 1015.3 - 0.0 - - - - - - -
19/09:30am 17.7 WNW 14 20 1015.2 - 0.0 - - - - - - -
19/09:00am 17.3 WNW 15 19 1015.4 - 0.0 - - - - - - -
19/08:30am 17.3 WNW 15 21 1015.5 - 0.0 - - - - - - -
19/08:00am 17.0 NW 14 19 1015.4 - 0.0 - - - - - - -
19/07:30am 16.6 WNW 13 18 1015.3 - 0.0 - - - - - - -
19/07:00am 16.4 WNW 13 18 1015.3 - 0.0 - - - - - - -
19/06:30am 16.3 WNW 12 16 1015.2 - 0.0 - - - - - - -
19/06:00am 16.0 WNW 14 18 1015.3 - 0.0 - - - - - - -
19/05:30am 15.9 WNW 13 16 1015.2 - 0.0 - - - - - - -
19/05:00am 15.7 WNW 13 19 1015.1 - 0.0 - - - - - - -
19/04:30am 16.0 WNW 15 20 1015.3 - 0.0 - - - - - - -
19/04:00am 16.2 W 13 18 1015.3 - 0.0 - - - - - - -
19/03:30am 16.3 WNW 14 19 1015.5 - 0.0 - - - - - - -

Other Formats:

Comma delimited format used in spreadsheet applications
http://www.bom.gov.au/fwo/IDW60701/IDW60701.94600.axf

JavaScript Object Notation format (JSON) in row-major order
http://www.bom.gov.au/fwo/IDW60701/IDW60701.94600.json